Garrison, West Virginia
Current Conditions -  °F | °C
As of 2:51 AM on Wednesday 26 Nov 2014 (Local Time) from KBKW Reporting Station
Overcast Overcast  
Wind Chill: 39°   Ceiling: 9500
Heat Index: 39°   Visibility: 10mi
Dew Point: 25°   Wind: 3mph
Humidity: 57%   Direction: 40°NE
Pressure: 29.99"   Gusts: NA
Location:  37.9764°N, 81.5271°W
Report Text: KBKW 260751Z AUTO 04003KT 10SM OVC095 04/M04 A2999 RMK AO2 PRESFR SLP160 T00391039
Loading
Personal Weather Stations






























Interactive Weather Map New forecast layout! Learn more

10-Day Weather Forecast

Advertisements
Track Severe Weather on mobile